createdAt,value
2018-11-23T00:00:32.008Z,3.60
2018-11-23T00:03:01.572Z,3.60
2018-11-23T00:05:30.717Z,3.60
2018-11-23T00:08:00.192Z,3.60
2018-11-23T00:10:30.699Z,3.60
2018-11-23T00:12:59.809Z,3.60
2018-11-23T00:15:28.933Z,3.70
2018-11-23T00:17:57.983Z,3.70
2018-11-23T00:20:28.207Z,3.70
2018-11-23T00:22:57.270Z,3.70
2018-11-23T00:25:27.043Z,3.70
2018-11-23T00:27:56.495Z,3.70
2018-11-23T00:30:26.723Z,3.70
2018-11-23T00:32:55.875Z,3.70
2018-11-23T00:35:26.272Z,3.70
2018-11-23T00:37:55.751Z,3.60
2018-11-23T00:40:26.310Z,3.60
2018-11-23T00:42:55.679Z,3.60
2018-11-23T00:45:24.830Z,3.60
2018-11-23T00:47:54.709Z,3.60
2018-11-23T00:50:24.718Z,3.50
2018-11-23T00:52:54.743Z,3.50
2018-11-23T00:55:24.655Z,3.50
2018-11-23T00:57:53.801Z,3.50
2018-11-23T01:00:26.025Z,3.50
2018-11-23T01:02:55.676Z,3.60
2018-11-23T01:05:24.746Z,3.50
2018-11-23T01:07:53.771Z,3.50
2018-11-23T01:10:23.818Z,3.50
2018-11-23T01:12:53.861Z,3.50
2018-11-23T01:15:23.006Z,3.50
2018-11-23T01:17:52.062Z,3.50
2018-11-23T01:20:23.293Z,3.50
2018-11-23T01:22:52.774Z,3.50
2018-11-23T01:25:22.827Z,3.40
2018-11-23T01:27:52.812Z,3.50
2018-11-23T01:30:24.187Z,3.50
2018-11-23T01:32:53.264Z,3.60
2018-11-23T01:35:22.416Z,3.60
2018-11-23T01:37:51.460Z,3.70
2018-11-23T01:40:23.035Z,3.70
2018-11-23T01:42:52.378Z,3.70
2018-11-23T01:45:21.574Z,3.80
2018-11-23T01:47:50.562Z,3.80
2018-11-23T01:50:21.022Z,3.90
2018-11-23T01:52:50.707Z,3.90
2018-11-23T01:55:20.648Z,4.00
2018-11-23T01:57:49.740Z,4.00
2018-11-23T02:00:20.182Z,4.10
2018-11-23T02:02:49.980Z,4.10
2018-11-23T02:05:19.170Z,4.10
2018-11-23T02:07:48.312Z,4.20
2018-11-23T02:10:17.967Z,4.20
2018-11-23T02:12:47.117Z,4.20
2018-11-23T02:15:18.324Z,4.30
2018-11-23T02:17:47.806Z,4.30
2018-11-23T02:20:17.842Z,4.30
2018-11-23T02:22:46.875Z,4.40
2018-11-23T02:25:16.897Z,4.40
2018-11-23T02:27:45.986Z,4.40
2018-11-23T02:30:18.151Z,4.40
2018-11-23T02:32:47.146Z,4.40
2018-11-23T02:35:16.724Z,4.40
2018-11-23T02:37:45.899Z,4.50
2018-11-23T02:40:17.063Z,4.50
2018-11-23T02:42:46.464Z,4.50
2018-11-23T02:45:17.229Z,4.50
2018-11-23T02:47:46.892Z,4.50
2018-11-23T02:50:16.169Z,4.60
2018-11-23T02:52:45.605Z,4.60
2018-11-23T02:55:15.851Z,4.60
2018-11-23T02:57:44.966Z,4.60
2018-11-23T03:00:16.278Z,4.60
2018-11-23T03:02:45.388Z,4.60
2018-11-23T03:05:16.494Z,4.60
2018-11-23T03:07:45.612Z,4.60
2018-11-23T03:10:15.703Z,4.60
2018-11-23T03:12:45.533Z,4.70
2018-11-23T03:15:16.265Z,4.70
2018-11-23T03:17:45.819Z,4.70
2018-11-23T03:20:16.218Z,4.70
2018-11-23T03:22:45.255Z,4.80
2018-11-23T03:25:14.692Z,4.80
2018-11-23T03:27:43.779Z,4.90
2018-11-23T03:31:19.976Z,4.90
2018-11-23T03:33:49.054Z,4.90
2018-11-23T03:36:18.145Z,4.90
2018-11-23T03:38:47.246Z,4.90
2018-11-23T03:41:16.228Z,4.90
2018-11-23T03:43:45.362Z,5.00
2018-11-23T03:46:14.552Z,5.00
2018-11-23T03:48:43.724Z,5.10
2018-11-23T03:51:12.830Z,5.10
2018-11-23T03:53:41.837Z,5.10
2018-11-23T03:56:10.866Z,5.10
2018-11-23T03:58:39.900Z,5.20
2018-11-23T04:01:09.008Z,5.20
2018-11-23T04:03:38.139Z,5.20
2018-11-23T04:06:07.232Z,5.20
2018-11-23T04:08:36.320Z,5.30
2018-11-23T04:11:05.595Z,5.30
2018-11-23T04:13:34.676Z,5.30
2018-11-23T04:16:03.830Z,5.30
2018-11-23T04:18:32.948Z,5.30
2018-11-23T04:21:02.985Z,5.30
2018-11-23T04:23:33.216Z,5.30
2018-11-23T04:26:02.423Z,5.30
2018-11-23T04:28:31.479Z,5.30
2018-11-23T04:31:00.657Z,5.20
2018-11-23T04:33:29.743Z,5.20
2018-11-23T04:35:58.827Z,5.20
2018-11-23T04:38:27.915Z,5.20
2018-11-23T04:40:56.975Z,5.20
2018-11-23T04:43:26.071Z,5.20
2018-11-23T04:45:55.248Z,5.20
2018-11-23T04:48:24.347Z,5.20
2018-11-23T04:50:53.439Z,5.30
2018-11-23T04:53:22.451Z,5.30
2018-11-23T04:55:51.467Z,5.30
2018-11-23T04:58:20.527Z,5.30
2018-11-23T05:00:49.519Z,5.30
2018-11-23T05:03:18.606Z,5.30
2018-11-23T05:05:47.730Z,5.30
2018-11-23T05:08:16.810Z,5.30
2018-11-23T05:10:45.891Z,5.30
2018-11-23T05:13:15.002Z,5.20
2018-11-23T05:15:44.028Z,5.20
2018-11-23T05:18:13.093Z,5.20
2018-11-23T05:20:42.180Z,5.20
2018-11-23T05:23:11.163Z,5.20
2018-11-23T05:25:40.283Z,5.20
2018-11-23T05:28:09.380Z,5.20
2018-11-23T05:30:38.447Z,5.20
2018-11-23T05:33:07.545Z,5.20
2018-11-23T05:35:36.682Z,5.20
2018-11-23T05:38:05.797Z,5.20
2018-11-23T05:40:34.805Z,5.30
2018-11-23T05:43:04.472Z,5.30
2018-11-23T05:45:32.914Z,5.30
2018-11-23T05:48:02.554Z,5.30
2018-11-23T05:50:31.638Z,5.20
2018-11-23T05:53:00.770Z,5.20
2018-11-23T05:55:29.900Z,5.20
2018-11-23T05:57:58.933Z,5.20
2018-11-23T06:00:29.679Z,5.10
2018-11-23T06:02:58.758Z,5.10
2018-11-23T06:05:28.232Z,5.20
2018-11-23T06:07:57.366Z,5.20
2018-11-23T06:10:26.338Z,5.20
2018-11-23T06:12:55.390Z,5.30
2018-11-23T06:15:25.222Z,5.30
2018-11-23T06:17:54.369Z,5.40
2018-11-23T06:20:24.755Z,5.40
2018-11-23T06:22:54.555Z,5.40
2018-11-23T06:25:35.327Z,5.50
2018-11-23T06:28:04.823Z,5.50
2018-11-23T06:30:33.815Z,5.50
2018-11-23T06:33:14.611Z,5.50
2018-11-23T06:35:43.727Z,5.60
2018-11-23T06:38:12.783Z,5.60
2018-11-23T06:40:41.891Z,5.60
2018-11-23T06:43:10.951Z,5.60
2018-11-23T06:45:41.967Z,5.60
2018-11-23T06:48:11.543Z,5.60
2018-11-23T06:50:40.711Z,5.60
2018-11-23T06:53:09.824Z,5.60
2018-11-23T06:55:38.981Z,5.60
2018-11-23T06:58:08.083Z,5.60
2018-11-23T07:00:37.175Z,5.60
2018-11-23T07:03:06.230Z,5.60
2018-11-23T07:05:35.301Z,5.60
2018-11-23T07:08:04.598Z,5.70
2018-11-23T07:10:34.240Z,5.70
2018-11-23T07:13:03.935Z,5.70
2018-11-23T07:15:33.060Z,5.70
2018-11-23T07:18:02.310Z,5.70
2018-11-23T07:20:32.020Z,5.70
2018-11-23T07:23:01.115Z,5.80
2018-11-23T07:25:30.147Z,5.80
2018-11-23T07:27:59.195Z,5.80
2018-11-23T07:30:29.012Z,5.80
2018-11-23T07:32:58.110Z,5.80
2018-11-23T07:35:27.087Z,5.70
2018-11-23T07:37:56.258Z,5.70
2018-11-23T07:40:38.482Z,5.70
2018-11-23T07:43:07.620Z,5.70
2018-11-23T07:45:36.683Z,5.60
2018-11-23T07:48:06.363Z,5.60
2018-11-23T07:50:35.390Z,5.60
2018-11-23T07:53:04.540Z,5.60
2018-11-23T07:55:33.594Z,5.60
2018-11-23T07:58:02.725Z,5.60
2018-11-23T08:00:31.837Z,5.60
2018-11-23T08:03:00.856Z,5.60
2018-11-23T08:05:29.912Z,5.70
2018-11-23T08:07:59.028Z,5.70
2018-11-23T08:10:27.292Z,5.80
2018-11-23T08:12:56.428Z,5.80
2018-11-23T08:15:27.092Z,5.80
2018-11-23T08:17:56.152Z,5.90
2018-11-23T08:20:26.057Z,5.90
2018-11-23T08:22:55.425Z,5.90
2018-11-23T08:25:25.487Z,5.90
2018-11-23T08:27:55.828Z,5.90
2018-11-23T08:30:27.286Z,6.00
2018-11-23T08:32:56.738Z,5.90
2018-11-23T08:35:25.752Z,5.90
2018-11-23T08:37:54.914Z,5.90
2018-11-23T08:40:26.206Z,5.90
2018-11-23T08:42:56.022Z,5.90
2018-11-23T08:45:26.313Z,6.00
2018-11-23T08:47:55.441Z,6.00
2018-11-23T08:50:27.917Z,6.10
2018-11-23T08:52:56.955Z,6.10
2018-11-23T08:55:26.293Z,6.20
2018-11-23T08:57:55.353Z,6.30
2018-11-23T09:00:26.759Z,6.30
2018-11-23T09:02:57.547Z,6.40
2018-11-23T09:05:26.795Z,6.40
2018-11-23T09:07:56.659Z,6.50
2018-11-23T09:10:27.303Z,6.50
2018-11-23T09:12:58.159Z,6.60
2018-11-23T09:15:27.328Z,6.60
2018-11-23T09:17:56.343Z,6.60
2018-11-23T09:20:25.395Z,6.70
2018-11-23T09:22:54.482Z,6.70
2018-11-23T09:25:24.146Z,6.70
2018-11-23T09:27:53.403Z,6.70
2018-11-23T09:30:25.723Z,6.70
2018-11-23T09:32:55.713Z,6.80
2018-11-23T09:35:25.055Z,6.80
2018-11-23T09:37:54.292Z,6.80
2018-11-23T09:40:24.765Z,6.80
2018-11-23T09:42:54.897Z,6.90
2018-11-23T09:45:25.518Z,6.90
2018-11-23T09:47:56.098Z,6.90
2018-11-23T09:50:25.835Z,6.90
2018-11-23T09:52:56.039Z,7.00
2018-11-23T09:55:25.711Z,7.00
2018-11-23T09:57:54.775Z,7.00
2018-11-23T10:00:25.303Z,7.10
2018-11-23T10:02:55.295Z,7.10
2018-11-23T10:05:25.224Z,7.20
2018-11-23T10:07:56.871Z,7.20
2018-11-23T10:10:26.391Z,7.30
2018-11-23T10:12:55.503Z,7.30
2018-11-23T10:15:25.602Z,7.30
2018-11-23T10:17:54.754Z,7.40
2018-11-23T10:20:27.187Z,7.50
2018-11-23T10:22:56.402Z,7.50
2018-11-23T10:25:27.694Z,7.50
2018-11-23T10:27:57.012Z,7.60
2018-11-23T10:30:27.557Z,7.70
2018-11-23T10:32:59.225Z,7.70
2018-11-23T10:35:28.702Z,7.70
2018-11-23T10:37:59.232Z,7.80
2018-11-23T10:40:30.058Z,7.80
2018-11-23T10:42:59.166Z,7.90
2018-11-23T10:45:29.921Z,8.00
2018-11-23T10:47:59.915Z,8.00
2018-11-23T10:50:30.851Z,8.10
2018-11-23T10:53:00.017Z,8.10
2018-11-23T10:55:30.582Z,8.20
2018-11-23T10:57:59.755Z,8.30
2018-11-23T11:00:34.427Z,8.30
2018-11-23T11:03:07.759Z,8.40
2018-11-23T11:05:37.019Z,8.50
2018-11-23T11:08:06.564Z,8.50
2018-11-23T11:10:35.639Z,8.60
2018-11-23T11:13:05.124Z,8.70
2018-11-23T11:15:34.144Z,8.80
2018-11-23T11:18:03.252Z,8.80
2018-11-23T11:20:32.360Z,8.90
2018-11-23T11:23:01.442Z,9.00
2018-11-23T11:25:30.448Z,9.10
2018-11-23T11:27:59.853Z,9.10
2018-11-23T11:30:29.102Z,9.20
2018-11-23T11:32:58.254Z,9.30
2018-11-23T11:35:27.361Z,9.40
2018-11-23T11:37:56.516Z,9.50
2018-11-23T11:40:25.664Z,9.50
2018-11-23T11:42:54.828Z,9.60
2018-11-23T11:45:23.886Z,9.60
2018-11-23T11:47:53.006Z,9.70
2018-11-23T11:50:22.058Z,9.70
2018-11-23T11:52:51.097Z,9.70
2018-11-23T11:55:20.943Z,9.80
2018-11-23T11:57:50.126Z,9.80
2018-11-23T12:00:22.864Z,9.80
2018-11-23T12:02:51.945Z,9.90
2018-11-23T12:05:21.042Z,9.90
2018-11-23T12:07:50.108Z,9.90
2018-11-23T12:10:21.569Z,9.90
2018-11-23T12:12:50.792Z,10.00
2018-11-23T12:15:19.779Z,10.00
2018-11-23T12:17:48.841Z,10.00
2018-11-23T12:20:19.434Z,10.10
2018-11-23T12:22:48.767Z,10.10
2018-11-23T12:25:18.295Z,10.10
2018-11-23T12:27:47.390Z,10.10
2018-11-23T12:30:19.852Z,10.20
2018-11-23T12:32:50.228Z,10.20
2018-11-23T12:35:20.295Z,10.20
2018-11-23T12:37:49.490Z,10.20
2018-11-23T12:40:19.503Z,10.30
2018-11-23T12:42:49.019Z,10.40
2018-11-23T12:45:20.364Z,10.50
2018-11-23T12:47:49.483Z,10.60
2018-11-23T12:50:19.909Z,10.70
2018-11-23T12:52:49.103Z,10.80
2018-11-23T12:55:18.767Z,10.90
2018-11-23T12:57:47.869Z,11.00
2018-11-23T13:00:25.220Z,11.10
2018-11-23T13:02:55.797Z,11.20
2018-11-23T13:05:25.803Z,11.20
2018-11-23T13:07:56.003Z,11.20
2018-11-23T13:10:25.847Z,11.30
2018-11-23T13:12:56.350Z,11.20
2018-11-23T13:15:25.475Z,11.20
2018-11-23T13:17:54.950Z,11.20
2018-11-23T13:20:24.031Z,11.20
2018-11-23T13:22:53.169Z,11.20
2018-11-23T13:25:24.751Z,11.20
2018-11-23T13:27:54.021Z,11.10
2018-11-23T13:30:24.670Z,11.10
2018-11-23T13:32:53.851Z,11.10
2018-11-23T13:35:23.638Z,11.10
2018-11-23T13:37:52.741Z,11.20
2018-11-23T13:40:23.115Z,11.20
2018-11-23T13:42:52.784Z,11.10
2018-11-23T13:45:23.210Z,11.10
2018-11-23T13:47:52.377Z,11.10
2018-11-23T13:50:22.623Z,11.10
2018-11-23T13:52:53.271Z,11.10
2018-11-23T13:55:22.387Z,11.10
2018-11-23T13:57:51.665Z,11.20
2018-11-23T14:00:22.395Z,11.20
2018-11-23T14:02:51.932Z,11.20
2018-11-23T14:05:23.364Z,11.30
2018-11-23T14:07:53.906Z,11.30
2018-11-23T14:10:24.224Z,11.30
2018-11-23T14:12:53.407Z,11.30
2018-11-23T14:15:25.679Z,11.40
2018-11-23T14:17:55.874Z,11.40
2018-11-23T14:20:25.890Z,11.40
2018-11-23T14:22:55.079Z,11.40
2018-11-23T14:25:25.645Z,11.40
2018-11-23T14:27:55.234Z,11.40
2018-11-23T14:30:26.682Z,11.40
2018-11-23T14:32:56.113Z,11.40
2018-11-23T14:35:26.706Z,11.30
2018-11-23T14:37:56.670Z,11.30
2018-11-23T14:40:25.718Z,11.30
2018-11-23T14:42:55.450Z,11.30
2018-11-23T14:45:32.889Z,11.30
2018-11-23T14:48:03.270Z,11.20
2018-11-23T14:50:33.574Z,11.20
2018-11-23T14:53:02.782Z,11.20
2018-11-23T14:55:32.205Z,11.20
2018-11-23T14:58:01.298Z,11.20
2018-11-23T15:00:31.815Z,11.20
2018-11-23T15:03:01.842Z,11.10
2018-11-23T15:05:30.921Z,11.10
2018-11-23T15:08:00.085Z,11.10
2018-11-23T15:10:30.452Z,11.10
2018-11-23T15:13:00.772Z,11.10
2018-11-23T15:15:31.278Z,11.00
2018-11-23T15:18:00.806Z,11.00
2018-11-23T15:20:35.268Z,11.00
2018-11-23T15:23:08.397Z,10.90
2018-11-23T15:25:37.844Z,10.90
2018-11-23T15:28:08.272Z,10.90
2018-11-23T15:30:38.363Z,10.90
2018-11-23T15:33:08.296Z,10.90
2018-11-23T15:35:38.096Z,10.80
2018-11-23T15:38:10.260Z,10.80
2018-11-23T15:40:37.775Z,10.70
2018-11-23T15:43:08.446Z,10.70
2018-11-23T15:45:37.631Z,10.70
2018-11-23T15:48:07.427Z,10.60
2018-11-23T15:50:37.899Z,10.60
2018-11-23T15:53:08.437Z,10.50
2018-11-23T15:55:38.575Z,10.50
2018-11-23T15:58:09.155Z,10.50
2018-11-23T16:00:39.517Z,10.40
2018-11-23T16:03:09.823Z,10.40
2018-11-23T16:05:39.221Z,10.30
2018-11-23T16:08:11.757Z,10.30
2018-11-23T16:10:40.781Z,10.20
2018-11-23T16:13:11.512Z,10.20
2018-11-23T16:15:39.948Z,10.20
2018-11-23T16:18:10.519Z,10.10
2018-11-23T16:20:41.471Z,10.10
2018-11-23T16:24:39.934Z,10.00
2018-11-23T16:27:08.948Z,10.00
2018-11-23T16:29:38.031Z,9.80
2018-11-23T16:32:07.179Z,9.80
2018-11-23T16:34:36.293Z,9.70
2018-11-23T16:37:05.873Z,9.70
2018-11-23T16:39:34.919Z,9.70
2018-11-23T16:42:03.934Z,9.60
2018-11-23T16:44:33.061Z,9.60
2018-11-23T16:47:02.127Z,9.60
2018-11-23T16:49:31.134Z,9.50
2018-11-23T16:52:00.205Z,9.50
2018-11-23T16:54:29.328Z,9.40
2018-11-23T16:56:58.365Z,9.40
2018-11-23T16:59:27.495Z,9.40
2018-11-23T17:01:56.646Z,9.30
2018-11-23T17:04:25.710Z,9.30
2018-11-23T17:06:54.782Z,9.20
2018-11-23T17:09:23.864Z,9.10
2018-11-23T17:11:53.031Z,9.10
2018-11-23T17:14:22.102Z,9.10
2018-11-23T17:16:51.192Z,9.00
2018-11-23T17:19:20.184Z,9.00
2018-11-23T17:21:49.269Z,8.90
2018-11-23T17:24:18.552Z,8.90
2018-11-23T17:26:47.722Z,8.80
2018-11-23T17:29:22.978Z,8.80
2018-11-23T17:31:46.083Z,8.70
2018-11-23T17:34:15.128Z,8.70
2018-11-23T17:36:44.214Z,8.70
2018-11-23T17:39:13.424Z,8.70
2018-11-23T17:41:42.548Z,8.60
2018-11-23T17:44:11.634Z,8.60
2018-11-23T17:46:40.788Z,8.50
2018-11-23T17:49:09.962Z,8.40
2018-11-23T17:51:39.008Z,8.40
2018-11-23T17:54:08.121Z,8.40
2018-11-23T17:56:37.253Z,8.30
2018-11-23T17:59:06.246Z,8.30
2018-11-23T18:01:35.267Z,8.20
2018-11-23T18:04:04.594Z,8.20
2018-11-23T18:06:33.689Z,8.20
2018-11-23T18:09:03.239Z,8.10
2018-11-23T18:11:32.295Z,8.10
2018-11-23T18:14:01.364Z,8.10
2018-11-23T18:16:30.494Z,8.10
2018-11-23T18:18:59.695Z,8.00
2018-11-23T18:21:28.784Z,8.00
2018-11-23T18:23:58.886Z,8.00
2018-11-23T18:26:28.025Z,8.00
2018-11-23T18:30:00.760Z,7.90
2018-11-23T18:32:29.897Z,7.90
2018-11-23T18:34:58.944Z,7.80
2018-11-23T18:37:28.068Z,7.70
2018-11-23T18:39:57.205Z,7.70
2018-11-23T18:42:26.214Z,7.70
2018-11-23T18:44:55.367Z,7.70
2018-11-23T18:47:24.437Z,7.70
2018-11-23T18:49:54.996Z,7.70
2018-11-23T18:52:24.155Z,7.60
2018-11-23T18:54:53.245Z,7.60
2018-11-23T18:57:22.307Z,7.60
2018-11-23T18:59:51.323Z,7.60
2018-11-23T19:02:20.449Z,7.60
2018-11-23T19:04:53.370Z,7.60
2018-11-23T19:07:22.404Z,7.50
2018-11-23T19:09:51.491Z,7.60
2018-11-23T19:12:20.636Z,7.60
2018-11-23T19:14:49.717Z,7.50
2018-11-23T19:17:18.805Z,7.50
2018-11-23T19:19:47.913Z,7.50
2018-11-23T19:22:16.981Z,7.50
2018-11-23T19:24:45.995Z,7.50
2018-11-23T19:27:15.051Z,7.40
2018-11-23T19:29:44.143Z,7.40
2018-11-23T19:32:13.263Z,7.40
2018-11-23T19:34:42.359Z,7.40
2018-11-23T19:37:11.399Z,7.40
2018-11-23T19:39:40.415Z,7.40
2018-11-23T19:42:09.460Z,7.30
2018-11-23T19:44:38.631Z,7.30
2018-11-23T19:47:07.750Z,7.30
2018-11-23T19:49:37.523Z,7.20
2018-11-23T19:52:06.575Z,7.20
2018-11-23T19:54:35.659Z,7.20
2018-11-23T19:57:04.803Z,7.20
2018-11-23T19:59:33.997Z,7.10
2018-11-23T20:02:03.115Z,7.10
2018-11-23T20:04:32.199Z,7.10
2018-11-23T20:07:01.353Z,7.10
2018-11-23T20:09:30.470Z,7.10
2018-11-23T20:11:59.537Z,7.10
2018-11-23T20:14:28.606Z,7.10
2018-11-23T20:16:57.715Z,7.00
2018-11-23T20:19:26.779Z,7.00
2018-11-23T20:21:55.931Z,7.00
2018-11-23T20:24:24.969Z,7.00
2018-11-23T20:26:54.069Z,7.00
2018-11-23T20:29:23.179Z,7.00
2018-11-23T20:31:52.507Z,7.00
2018-11-23T20:34:21.553Z,7.00
2018-11-23T20:36:50.615Z,7.00
2018-11-23T20:46:17.694Z,7.00
2018-11-23T20:48:46.768Z,6.70
2018-11-23T20:51:15.810Z,6.70
2018-11-23T20:53:44.975Z,6.70
2018-11-23T20:56:13.954Z,6.70
2018-11-23T20:58:43.023Z,6.70
2018-11-23T21:01:12.112Z,6.70
2018-11-23T21:03:41.194Z,6.70
2018-11-23T21:06:10.290Z,6.70
2018-11-23T21:08:39.394Z,6.70
2018-11-23T21:11:08.484Z,6.70
2018-11-23T21:13:37.590Z,6.70
2018-11-23T21:16:06.680Z,6.70
2018-11-23T21:18:35.781Z,6.70
2018-11-23T21:21:05.180Z,6.70
2018-11-23T21:23:34.285Z,6.60
2018-11-23T21:26:03.376Z,6.60
2018-11-23T21:28:32.637Z,6.60
2018-11-23T21:31:01.681Z,6.60
2018-11-23T21:33:30.790Z,6.60
2018-11-23T21:35:59.901Z,6.60
2018-11-23T21:38:28.954Z,6.60
2018-11-23T21:40:58.070Z,6.60
2018-11-23T21:43:27.169Z,6.60
2018-11-23T21:45:56.440Z,6.60
2018-11-23T21:48:25.611Z,6.60
2018-11-23T21:50:54.656Z,6.60
2018-11-23T21:53:23.710Z,6.60
2018-11-23T21:55:52.830Z,6.60
2018-11-23T21:58:21.954Z,6.60
2018-11-23T22:00:50.974Z,6.60
2018-11-23T22:03:20.001Z,6.60
2018-11-23T22:05:49.162Z,6.50
2018-11-23T22:08:18.243Z,6.50
2018-11-23T22:10:47.231Z,6.50
2018-11-23T22:13:16.288Z,6.60
2018-11-23T22:15:46.411Z,6.50
2018-11-23T22:18:15.551Z,6.50
2018-11-23T22:20:44.599Z,6.50
2018-11-23T22:23:13.691Z,6.50
2018-11-23T22:25:42.678Z,6.50
2018-11-23T22:28:11.887Z,6.50
2018-11-23T22:30:40.910Z,6.50
2018-11-23T22:33:09.964Z,6.50
2018-11-23T22:35:39.041Z,6.40
2018-11-23T22:38:08.243Z,6.40
2018-11-23T22:40:37.335Z,6.40
2018-11-23T22:43:06.667Z,6.40
2018-11-23T22:45:35.707Z,6.40
2018-11-23T22:48:04.759Z,6.30
2018-11-23T22:50:33.825Z,6.40
2018-11-23T22:53:02.973Z,6.30
2018-11-23T22:55:32.017Z,6.30
2018-11-23T22:58:01.164Z,6.30
2018-11-23T23:00:35.639Z,6.30
2018-11-23T23:03:04.792Z,6.30
2018-11-23T23:05:33.844Z,6.30
2018-11-23T23:08:02.881Z,6.30
2018-11-23T23:10:32.056Z,6.20
2018-11-23T23:13:01.049Z,6.30
2018-11-23T23:15:30.059Z,6.20
2018-11-23T23:17:59.147Z,6.20
2018-11-23T23:20:28.319Z,6.20
2018-11-23T23:22:57.309Z,6.20
2018-11-23T23:25:26.339Z,6.10
2018-11-23T23:27:55.356Z,6.10
2018-11-23T23:30:24.423Z,6.20
2018-11-23T23:32:53.516Z,6.10
2018-11-23T23:35:22.563Z,6.10
2018-11-23T23:37:51.674Z,6.10
2018-11-23T23:40:20.810Z,6.10
2018-11-23T23:42:49.833Z,6.10
2018-11-23T23:45:19.118Z,6.00
2018-11-23T23:47:48.289Z,6.00
2018-11-23T23:50:20.432Z,6.00
2018-11-23T23:52:50.087Z,6.00
2018-11-23T23:55:19.106Z,6.00
2018-11-23T23:57:48.646Z,6.00
